createdAt,value
2019-05-13T00:02:13.256Z,93.40
2019-05-13T00:04:39.318Z,93.40
2019-05-13T00:07:05.390Z,93.20
2019-05-13T00:09:33.850Z,93.40
2019-05-13T00:11:59.421Z,93.30
2019-05-13T00:14:25.501Z,93.00
2019-05-13T00:16:53.647Z,93.70
2019-05-13T00:19:19.544Z,93.80
2019-05-13T00:21:45.596Z,93.60
2019-05-13T00:24:13.686Z,93.90
2019-05-13T00:26:39.637Z,93.80
2019-05-13T00:29:05.813Z,93.80
2019-05-13T00:31:33.579Z,94.10
2019-05-13T00:33:59.844Z,94.10
2019-05-13T00:36:25.908Z,94.20
2019-05-13T00:38:53.495Z,94.40
2019-05-13T00:41:19.844Z,94.60
2019-05-13T00:43:45.920Z,94.60
2019-05-13T00:46:14.086Z,94.90
2019-05-13T00:48:39.956Z,94.90
2019-05-13T00:51:06.043Z,94.80
2019-05-13T00:53:32.221Z,95.20
2019-05-13T00:55:58.272Z,95.00
2019-05-13T00:58:24.414Z,95.30
2019-05-13T01:00:50.603Z,95.20
2019-05-13T01:03:16.768Z,95.00
2019-05-13T01:05:44.459Z,95.00
2019-05-13T01:08:10.781Z,95.00
2019-05-13T01:10:36.856Z,94.90
2019-05-13T01:13:04.704Z,95.10
2019-05-13T01:15:30.926Z,94.90
2019-05-13T01:17:56.994Z,95.10
2019-05-13T01:20:23.568Z,94.90
2019-05-13T01:22:50.011Z,95.20
2019-05-13T01:25:16.070Z,95.20
2019-05-13T01:27:44.189Z,95.40
2019-05-13T01:30:13.279Z,95.20
2019-05-13T01:32:39.276Z,95.40
2019-05-13T01:35:05.935Z,95.60
2019-05-13T01:37:41.969Z,95.50
2019-05-13T01:39:59.968Z,95.40
2019-05-13T01:42:26.019Z,95.20
2019-05-13T01:44:53.858Z,95.20
2019-05-13T01:47:20.071Z,94.90
2019-05-13T01:49:46.134Z,95.10
2019-05-13T01:52:13.684Z,95.20
2019-05-13T01:54:39.964Z,95.30
2019-05-13T01:57:06.028Z,95.40
2019-05-13T01:59:33.991Z,95.40
2019-05-13T02:02:00.063Z,95.30
2019-05-13T02:04:26.236Z,95.00
2019-05-13T02:06:54.198Z,94.90
2019-05-13T02:09:20.247Z,95.10
2019-05-13T02:11:46.792Z,95.20
2019-05-13T02:14:13.321Z,95.20
2019-05-13T02:16:39.585Z,95.20
2019-05-13T02:19:05.716Z,95.00
2019-05-13T02:21:33.640Z,95.10
2019-05-13T02:23:59.743Z,95.40
2019-05-13T02:26:25.904Z,95.20
2019-05-13T02:28:53.992Z,95.10
2019-05-13T02:31:32.512Z,95.20
2019-05-13T02:33:48.092Z,95.40
2019-05-13T02:36:14.158Z,95.50
2019-05-13T02:38:42.721Z,95.60
2019-05-13T02:41:08.185Z,95.80
2019-05-13T02:43:34.252Z,95.90
2019-05-13T02:46:03.733Z,96.10
2019-05-13T02:48:28.600Z,96.30
2019-05-13T02:50:54.896Z,96.50
2019-05-13T02:53:23.669Z,96.60
2019-05-13T02:55:51.606Z,96.90
2019-05-13T02:58:16.989Z,96.60
2019-05-13T03:00:44.164Z,96.50
2019-05-13T03:03:12.847Z,96.50
2019-05-13T03:05:38.586Z,96.60
2019-05-13T03:08:04.744Z,96.70
2019-05-13T03:10:33.062Z,96.60
2019-05-13T03:12:58.794Z,96.60
2019-05-13T03:15:26.761Z,96.70
2019-05-13T03:17:54.765Z,96.80
2019-05-13T03:20:22.928Z,97.00
2019-05-13T03:22:52.272Z,96.90
2019-05-13T03:25:16.763Z,96.50
2019-05-13T03:27:43.028Z,96.30
2019-05-13T03:30:15.710Z,96.40
2019-05-13T03:32:44.476Z,96.50
2019-05-13T03:35:07.915Z,96.40
2019-05-13T03:37:34.831Z,96.40
2019-05-13T03:40:03.330Z,96.30
2019-05-13T03:42:33.497Z,96.40
2019-05-13T03:45:02.980Z,96.60
2019-05-13T03:47:33.006Z,96.70
2019-05-13T03:50:02.855Z,97.40
2019-05-13T03:52:27.030Z,97.90
2019-05-13T03:54:53.697Z,97.70
2019-05-13T03:57:23.054Z,97.90
2019-05-13T03:59:47.919Z,97.90
2019-05-13T04:02:14.091Z,97.60
2019-05-13T04:04:42.310Z,97.60
2019-05-13T04:07:08.215Z,97.60
2019-05-13T04:09:36.274Z,97.50
2019-05-13T04:12:03.390Z,97.70
2019-05-13T04:14:33.049Z,97.80
2019-05-13T04:16:57.764Z,98.00
2019-05-13T04:19:23.864Z,97.80
2019-05-13T04:21:52.833Z,97.50
2019-05-13T04:24:18.700Z,97.30
2019-05-13T04:26:44.859Z,97.30
2019-05-13T04:29:13.305Z,97.30
2019-05-13T04:31:42.219Z,97.30
2019-05-13T04:34:07.084Z,97.20
2019-05-13T04:36:33.162Z,96.90
2019-05-13T04:38:59.329Z,96.90
2019-05-13T04:41:25.381Z,96.50
2019-05-13T04:43:54.173Z,96.30
2019-05-13T04:46:22.832Z,95.80
2019-05-13T04:48:47.689Z,95.70
2019-05-13T04:51:14.115Z,95.80
2019-05-13T04:53:42.376Z,94.90
2019-05-13T04:56:08.897Z,94.90
2019-05-13T04:58:35.185Z,95.10
2019-05-13T05:01:23.992Z,94.80
2019-05-13T05:04:03.136Z,95.20
2019-05-13T05:06:34.620Z,95.00
2019-05-13T05:09:05.062Z,94.60
2019-05-13T05:11:52.722Z,94.40
2019-05-13T05:14:24.527Z,94.30
2019-05-13T05:17:12.248Z,94.20
2019-05-13T05:20:03.519Z,93.80
2019-05-13T05:22:32.941Z,93.50
2019-05-13T05:25:05.541Z,93.00
2019-05-13T05:27:58.664Z,93.00
2019-05-13T05:30:58.867Z,92.50
2019-05-13T05:33:48.641Z,92.50
2019-05-13T05:36:33.385Z,92.20
2019-05-13T05:39:22.706Z,92.20
2019-05-13T05:41:51.716Z,91.50
2019-05-13T05:44:21.472Z,91.20
2019-05-13T05:46:51.534Z,90.50
2019-05-13T05:49:21.216Z,89.10
2019-05-13T05:51:51.471Z,88.70
2019-05-13T05:54:21.893Z,89.90
2019-05-13T05:56:52.031Z,89.30
2019-05-13T05:59:21.762Z,85.70
2019-05-13T06:01:52.550Z,87.10
2019-05-13T06:04:21.995Z,86.90
2019-05-13T06:06:48.257Z,85.70
2019-05-13T06:09:14.411Z,87.80
2019-05-13T06:11:41.742Z,87.30
2019-05-13T06:14:08.156Z,84.00
2019-05-13T06:16:34.232Z,85.00
2019-05-13T06:19:01.425Z,87.10
2019-05-13T06:21:27.774Z,87.60
2019-05-13T06:23:53.852Z,81.70
2019-05-13T06:26:23.346Z,81.00
2019-05-13T06:28:47.983Z,80.40
2019-05-13T06:31:14.159Z,81.40
2019-05-13T06:33:42.204Z,82.10
2019-05-13T06:36:08.512Z,83.50
2019-05-13T06:38:34.577Z,82.60
2019-05-13T06:41:07.160Z,80.40
2019-05-13T06:43:28.632Z,82.80
2019-05-13T06:45:54.717Z,81.20
2019-05-13T06:48:22.969Z,84.20
2019-05-13T06:50:48.776Z,84.30
2019-05-13T06:53:14.854Z,85.10
2019-05-13T06:55:41.830Z,85.00
2019-05-13T06:58:08.117Z,85.00
2019-05-13T07:00:35.052Z,84.50
2019-05-13T07:03:02.280Z,82.10
2019-05-13T07:05:28.632Z,82.50
2019-05-13T07:07:54.696Z,80.40
2019-05-13T07:10:21.722Z,80.90
2019-05-13T07:12:47.937Z,80.00
2019-05-13T07:15:14.298Z,76.10
2019-05-13T07:17:41.591Z,79.20
2019-05-13T07:20:08.246Z,80.60
2019-05-13T07:22:34.295Z,71.50
2019-05-13T07:25:02.571Z,66.70
2019-05-13T07:27:28.322Z,73.50
2019-05-13T07:29:55.736Z,71.40
2019-05-13T07:32:22.269Z,70.20
2019-05-13T07:34:48.648Z,69.50
2019-05-13T07:37:14.704Z,68.60
2019-05-13T07:39:41.982Z,69.30
2019-05-13T07:42:08.168Z,69.30
2019-05-13T07:44:34.229Z,70.70
2019-05-13T07:47:03.325Z,69.00
2019-05-13T07:49:28.291Z,67.30
2019-05-13T07:51:54.389Z,68.70
2019-05-13T07:54:22.071Z,67.50
2019-05-13T07:56:48.400Z,66.20
2019-05-13T07:59:14.473Z,68.00
2019-05-13T08:01:41.745Z,67.40
2019-05-13T08:04:19.240Z,65.50
2019-05-13T08:06:36.082Z,62.70
2019-05-13T08:09:05.049Z,62.80
2019-05-13T08:11:36.777Z,61.70
2019-05-13T08:14:01.161Z,62.30
2019-05-13T08:16:27.074Z,63.10
2019-05-13T08:18:53.145Z,62.40
2019-05-13T08:21:21.385Z,63.20
2019-05-13T08:23:47.189Z,64.50
2019-05-13T08:26:13.246Z,61.80
2019-05-13T08:28:56.521Z,61.00
2019-05-13T08:31:07.281Z,62.20
2019-05-13T08:33:33.764Z,59.20
2019-05-13T08:36:01.575Z,61.30
2019-05-13T08:38:27.805Z,58.70
2019-05-13T08:40:53.862Z,57.20
2019-05-13T08:43:22.394Z,58.50
2019-05-13T08:45:47.894Z,53.60
2019-05-13T08:48:13.951Z,55.30
2019-05-13T08:50:41.861Z,58.80
2019-05-13T08:53:08.226Z,59.50
2019-05-13T08:55:34.290Z,59.80
2019-05-13T08:58:01.834Z,59.60
2019-05-13T09:00:48.142Z,59.20
2019-05-13T09:03:15.041Z,59.30
2019-05-13T09:05:41.441Z,59.10
2019-05-13T09:08:08.163Z,60.20
2019-05-13T09:10:34.262Z,52.90
2019-05-13T09:13:01.857Z,55.70
2019-05-13T09:15:28.177Z,53.10
2019-05-13T09:17:54.245Z,54.10
2019-05-13T09:20:22.017Z,52.00
2019-05-13T09:22:48.281Z,56.20
2019-05-13T09:25:14.351Z,58.40
2019-05-13T09:27:42.486Z,55.10
2019-05-13T09:30:08.605Z,52.50
2019-05-13T09:32:34.817Z,50.30
2019-05-13T09:35:03.020Z,50.20
2019-05-13T09:37:31.581Z,49.90
2019-05-13T09:39:56.992Z,52.80
2019-05-13T09:42:23.061Z,49.20
2019-05-13T09:44:49.132Z,49.80
2019-05-13T09:47:15.291Z,50.50
2019-05-13T09:49:42.028Z,50.60
2019-05-13T09:52:08.330Z,53.20
2019-05-13T09:54:34.417Z,54.80
2019-05-13T09:57:01.761Z,55.50
2019-05-13T09:59:28.147Z,56.20
2019-05-13T10:01:54.231Z,55.20
2019-05-13T10:04:22.231Z,55.50
2019-05-13T10:06:48.356Z,55.70
2019-05-13T10:09:36.205Z,52.40
2019-05-13T10:12:03.248Z,48.30
2019-05-13T10:14:32.343Z,48.90
2019-05-13T10:16:57.823Z,46.80
2019-05-13T10:19:23.883Z,50.00
2019-05-13T10:21:52.399Z,50.80
2019-05-13T10:24:19.084Z,50.30
2019-05-13T10:26:45.747Z,47.50
2019-05-13T10:29:12.338Z,49.30
2019-05-13T10:31:38.388Z,46.50
2019-05-13T10:34:04.465Z,48.40
2019-05-13T10:36:30.545Z,50.50
2019-05-13T10:38:56.696Z,49.40
2019-05-13T10:41:23.189Z,44.70
2019-05-13T10:43:51.765Z,44.50
2019-05-13T10:46:17.225Z,47.30
2019-05-13T10:48:43.393Z,48.70
2019-05-13T10:51:09.479Z,48.30
2019-05-13T10:53:35.560Z,49.70
2019-05-13T10:56:03.257Z,50.70
2019-05-13T10:58:29.676Z,52.50
2019-05-13T11:00:56.265Z,52.70
2019-05-13T11:03:23.195Z,50.10
2019-05-13T11:05:52.189Z,48.10
2019-05-13T11:08:17.471Z,47.30
2019-05-13T11:10:43.620Z,49.10
2019-05-13T11:13:10.661Z,48.90
2019-05-13T11:15:44.628Z,45.50
2019-05-13T11:18:06.139Z,46.90
2019-05-13T11:20:32.803Z,48.60
2019-05-13T11:22:58.879Z,47.80
2019-05-13T11:25:25.010Z,45.90
2019-05-13T11:27:52.464Z,45.30
2019-05-13T11:30:21.616Z,41.60
2019-05-13T11:32:47.437Z,45.00
2019-05-13T11:35:13.995Z,46.20
2019-05-13T11:37:43.040Z,43.40
2019-05-13T11:40:11.845Z,45.90
2019-05-13T11:42:37.219Z,41.80
2019-05-13T11:45:06.291Z,39.50
2019-05-13T11:47:32.397Z,39.60
2019-05-13T11:49:58.569Z,44.90
2019-05-13T11:52:24.670Z,44.40
2019-05-13T11:54:53.893Z,43.00
2019-05-13T11:57:18.963Z,43.90
2019-05-13T11:59:45.333Z,45.80
2019-05-13T12:02:13.590Z,40.30
2019-05-13T12:04:43.068Z,38.70
2019-05-13T12:07:07.452Z,39.90
2019-05-13T12:09:33.529Z,41.70
2019-05-13T12:12:02.833Z,42.70
2019-05-13T12:15:04.894Z,42.50
2019-05-13T12:16:55.544Z,39.90
2019-05-13T12:19:22.075Z,39.50
2019-05-13T12:21:48.288Z,37.70
2019-05-13T12:24:14.359Z,36.60
2019-05-13T12:26:43.474Z,40.00
2019-05-13T12:29:17.629Z,39.20
2019-05-13T12:31:36.386Z,38.80
2019-05-13T12:34:03.685Z,38.60
2019-05-13T12:36:32.759Z,38.30
2019-05-13T12:38:58.196Z,39.70
2019-05-13T12:41:24.455Z,40.00
2019-05-13T12:43:54.057Z,38.90
2019-05-13T12:46:18.496Z,36.40
2019-05-13T12:48:44.561Z,38.40
2019-05-13T12:51:13.218Z,38.70
2019-05-13T12:53:38.600Z,40.90
2019-05-13T12:56:04.966Z,39.80
2019-05-13T12:58:33.832Z,36.50
2019-05-13T13:01:01.308Z,35.50
2019-05-13T13:03:27.009Z,35.40
2019-05-13T13:05:53.067Z,38.10
2019-05-13T13:10:47.111Z,39.70
2019-05-13T13:13:13.475Z,36.50
2019-05-13T13:15:46.719Z,38.20
2019-05-13T13:18:07.603Z,37.50
2019-05-13T13:20:41.035Z,35.10
2019-05-13T13:23:04.400Z,37.10
2019-05-13T13:25:33.577Z,34.10
2019-05-13T13:28:09.848Z,34.10
2019-05-13T13:30:25.844Z,34.60
2019-05-13T13:32:55.015Z,33.80
2019-05-13T13:35:21.788Z,34.10
2019-05-13T13:37:47.836Z,34.30
2019-05-13T13:40:20.237Z,35.20
2019-05-13T13:42:43.499Z,34.60
2019-05-13T13:45:10.036Z,33.70
2019-05-13T13:47:36.137Z,34.00
2019-05-13T13:50:05.104Z,32.40
2019-05-13T13:52:33.575Z,34.70
2019-05-13T13:55:04.425Z,34.30
2019-05-13T13:57:27.119Z,33.90
2019-05-13T14:00:20.972Z,35.90
2019-05-13T14:02:25.239Z,32.80
2019-05-13T14:04:53.643Z,31.70
2019-05-13T14:06:44.448Z,38.10
2019-05-13T14:07:28.100Z,29.90
2019-05-13T14:09:45.031Z,29.00
2019-05-13T14:12:11.447Z,28.60
2019-05-13T14:14:37.678Z,29.70
2019-05-13T14:17:03.732Z,29.00
2019-05-13T14:19:32.180Z,30.20
2019-05-13T14:21:57.772Z,31.60
2019-05-13T14:24:23.836Z,33.30
2019-05-13T14:26:52.398Z,29.80
2019-05-13T14:29:17.868Z,28.00
2019-05-13T14:31:43.940Z,28.50
2019-05-13T14:36:37.840Z,53.50
2019-05-13T14:46:35.408Z,36.70
2019-05-13T14:48:52.012Z,40.80
2019-05-13T14:51:18.092Z,27.20
2019-05-13T14:53:44.207Z,28.60
2019-05-13T14:56:13.932Z,29.50
2019-05-13T14:58:38.335Z,27.30
2019-05-13T15:01:15.835Z,26.50
2019-05-13T15:03:32.800Z,27.30
2019-05-13T15:06:01.526Z,27.60
2019-05-13T15:08:27.741Z,28.30
2019-05-13T15:10:53.893Z,28.10
2019-05-13T15:13:19.955Z,28.30
2019-05-13T15:15:46.132Z,29.70
2019-05-13T15:18:12.185Z,29.00
2019-05-13T15:20:38.250Z,29.80
2019-05-13T15:23:04.338Z,29.90
2019-05-13T15:25:31.430Z,28.20
2019-05-13T15:27:57.583Z,28.90
2019-05-13T16:26:42.634Z,22.90
2019-05-13T16:29:11.964Z,23.40
2019-05-13T16:31:37.192Z,24.30
2019-05-13T16:34:03.447Z,24.40
2019-05-13T17:10:51.521Z,59.10
2019-05-13T17:13:18.047Z,45.00
2019-05-13T17:15:44.108Z,44.10
2019-05-13T17:18:12.837Z,45.00
2019-05-13T17:20:38.137Z,49.50
2019-05-13T17:23:04.212Z,49.10
2019-05-13T17:25:30.283Z,49.50
2019-05-13T17:27:56.388Z,48.40
2019-05-13T17:30:22.531Z,41.30
2019-05-13T17:32:48.616Z,41.30
2019-05-13T17:35:14.984Z,40.30
2019-05-13T17:37:42.205Z,33.00
2019-05-13T17:40:08.809Z,34.40
2019-05-13T17:42:34.878Z,33.30
2019-05-13T17:45:02.352Z,33.40
2019-05-13T17:47:28.805Z,33.50
2019-05-13T17:49:54.860Z,33.60
2019-05-13T17:52:22.127Z,33.10
2019-05-13T17:54:48.297Z,33.40
2019-05-13T17:57:14.353Z,29.90
2019-05-13T17:59:41.812Z,28.20
2019-05-13T18:02:08.125Z,28.50
2019-05-13T18:04:34.312Z,28.90
2019-05-13T18:07:01.675Z,29.10
2019-05-13T18:09:27.928Z,29.40
2019-05-13T18:11:54.004Z,29.30
2019-05-13T18:14:21.701Z,29.20
2019-05-13T18:16:47.960Z,29.40
2019-05-13T18:19:14.053Z,30.00
2019-05-13T18:21:42.331Z,30.10
2019-05-13T18:24:08.103Z,30.10
2019-05-13T18:26:34.169Z,30.80
2019-05-13T18:29:01.908Z,31.10
2019-05-13T18:31:28.197Z,30.50
2019-05-13T18:33:54.272Z,30.60
2019-05-13T18:36:22.315Z,31.00
2019-05-13T18:38:48.312Z,31.10
2019-05-13T18:41:14.368Z,31.80
2019-05-13T18:43:41.364Z,31.80
2019-05-13T18:46:07.623Z,31.30
2019-05-13T18:48:33.671Z,31.40
2019-05-13T18:51:01.293Z,31.40
2019-05-13T18:53:27.565Z,32.30
2019-05-13T18:55:53.615Z,32.00
2019-05-13T18:58:22.047Z,32.30
2019-05-13T19:00:47.661Z,32.80
2019-05-13T19:03:13.738Z,32.80
2019-05-13T19:05:42.076Z,32.50
2019-05-13T19:08:07.908Z,33.30
2019-05-13T19:10:33.987Z,34.40
2019-05-13T19:13:01.702Z,33.80
2019-05-13T19:15:28.075Z,34.90
2019-05-13T19:17:54.149Z,35.70
2019-05-13T19:20:21.992Z,35.60
2019-05-13T19:22:48.180Z,35.90
2019-05-13T19:25:14.266Z,35.20
2019-05-13T19:27:41.381Z,34.70
2019-05-13T19:30:07.795Z,34.90
2019-05-13T19:32:33.965Z,35.00
2019-05-13T19:35:02.606Z,35.20
2019-05-13T19:37:28.007Z,35.50
2019-05-13T19:39:54.065Z,36.10
2019-05-13T19:42:22.183Z,36.60
2019-05-13T19:44:48.097Z,36.60
2019-05-13T19:47:14.155Z,36.70
2019-05-13T19:49:44.170Z,36.80
2019-05-13T19:52:08.216Z,36.70
2019-05-13T19:54:34.255Z,37.70
2019-05-13T19:57:01.407Z,38.50
2019-05-13T19:59:27.706Z,38.10
2019-05-13T20:01:53.760Z,38.10
2019-05-13T20:04:21.700Z,39.00
2019-05-13T20:06:47.901Z,39.20
2019-05-13T20:09:14.067Z,38.60
2019-05-13T20:11:41.951Z,38.60
2019-05-13T20:14:08.192Z,38.50
2019-05-13T20:16:34.269Z,38.00
2019-05-13T20:19:01.299Z,37.90
2019-05-13T20:21:27.512Z,38.10
2019-05-13T20:23:53.580Z,38.60
2019-05-13T20:26:21.684Z,38.30
2019-05-13T20:28:47.618Z,38.60
2019-05-13T20:31:13.718Z,39.30
2019-05-13T20:33:40.754Z,39.10
2019-05-13T20:36:07.762Z,39.00
2019-05-13T20:38:33.824Z,39.50
2019-05-13T20:41:01.310Z,40.20
2019-05-13T20:43:27.685Z,39.70
2019-05-13T20:45:53.734Z,39.60
2019-05-13T20:48:21.245Z,39.90
2019-05-13T20:50:47.482Z,39.50
2019-05-13T20:53:13.563Z,39.30
2019-05-13T20:55:41.684Z,39.80
2019-05-13T20:58:07.621Z,40.30
2019-05-13T21:00:33.691Z,40.80
2019-05-13T21:03:02.623Z,40.70
2019-05-13T21:05:27.750Z,40.20
2019-05-13T21:07:53.808Z,40.40
2019-05-13T21:10:21.170Z,41.00
2019-05-13T21:12:48.404Z,41.50
2019-05-13T21:15:14.749Z,42.40
2019-05-13T21:17:40.808Z,42.60
2019-05-13T21:20:18.529Z,42.70
2019-05-13T21:22:35.173Z,43.00
2019-05-13T21:25:03.123Z,43.60
2019-05-13T21:27:31.428Z,43.40
2019-05-13T21:29:57.182Z,43.20
2019-05-13T21:32:23.239Z,42.00
2019-05-13T21:34:51.464Z,42.10
2019-05-13T21:37:17.296Z,41.70
2019-05-13T21:39:43.348Z,41.40
2019-05-13T21:42:11.386Z,42.30
2019-05-13T21:44:37.392Z,43.10
2019-05-13T21:47:03.451Z,42.00
2019-05-13T21:49:31.487Z,42.30
2019-05-13T21:51:58.093Z,43.60
2019-05-13T21:54:24.185Z,43.40
2019-05-13T21:56:51.573Z,43.00
2019-05-13T21:59:17.738Z,43.10
2019-05-13T22:01:43.820Z,44.00
2019-05-13T22:04:12.135Z,44.40
2019-05-13T22:06:43.393Z,45.00
2019-05-13T22:09:11.700Z,45.50
2019-05-13T22:11:38.035Z,45.90
2019-05-13T22:14:04.101Z,47.20
2019-05-13T22:16:31.881Z,48.00
2019-05-13T22:18:58.140Z,47.80
2019-05-13T22:21:24.200Z,49.60
2019-05-13T22:23:51.778Z,48.60
2019-05-13T22:26:18.134Z,49.30
2019-05-13T22:28:44.204Z,48.70
2019-05-13T22:31:11.642Z,48.60
2019-05-13T22:33:37.940Z,49.50
2019-05-13T22:36:04.002Z,49.60
2019-05-13T22:38:32.442Z,50.40
2019-05-13T22:40:58.037Z,50.50
2019-05-13T22:43:24.092Z,49.50
2019-05-13T22:45:51.140Z,49.90
2019-05-13T22:48:17.330Z,51.40
2019-05-13T22:50:43.387Z,52.30
2019-05-13T22:53:11.834Z,50.80
2019-05-13T22:55:37.433Z,53.50
2019-05-13T22:58:03.506Z,52.90
2019-05-13T23:00:31.577Z,51.70
2019-05-13T23:02:57.532Z,54.10
2019-05-13T23:05:23.687Z,54.70
2019-05-13T23:07:51.427Z,55.90
2019-05-13T23:10:17.727Z,54.00
2019-05-13T23:12:43.776Z,53.70
2019-05-13T23:15:11.967Z,56.40
2019-05-13T23:17:37.922Z,57.20
2019-05-13T23:20:05.281Z,56.00
2019-05-13T23:22:31.331Z,54.60
2019-05-13T23:24:57.403Z,55.30
2019-05-13T23:27:23.471Z,56.10
2019-05-13T23:29:51.582Z,55.70
2019-05-13T23:32:17.495Z,57.80
2019-05-13T23:34:43.556Z,58.20
2019-05-13T23:37:11.349Z,58.40
2019-05-13T23:39:37.578Z,57.90
2019-05-13T23:42:03.651Z,57.00
2019-05-13T23:44:32.013Z,57.90
2019-05-13T23:46:57.676Z,57.80
2019-05-13T23:49:23.746Z,58.60
2019-05-13T23:51:51.866Z,59.90
2019-05-13T23:54:17.792Z,58.80
2019-05-13T23:56:44.356Z,59.20
2019-05-13T23:59:11.406Z,58.80
